createdAt,value
2022-09-28T16:38:36.667Z,5.44
2022-09-28T16:39:37.660Z,5.37
2022-09-28T16:40:37.691Z,5.93
2022-09-28T16:41:37.613Z,6.58
2022-09-28T16:42:48.671Z,7.35
2022-09-28T16:43:37.593Z,8.18
2022-09-28T16:44:37.599Z,9.07
2022-09-28T16:45:37.571Z,9.90
2022-09-28T16:46:37.762Z,10.82
2022-09-28T16:47:37.539Z,11.77
2022-09-28T16:48:37.516Z,12.74
2022-09-28T16:49:37.524Z,13.74
2022-09-28T16:50:37.491Z,14.79
2022-09-28T16:51:37.494Z,15.85
2022-09-28T16:52:37.485Z,16.99
2022-09-28T16:53:37.468Z,18.10
2022-09-28T16:54:37.452Z,19.19
2022-09-28T16:55:41.262Z,20.19
2022-09-28T16:56:37.417Z,21.10
2022-09-28T16:57:37.413Z,22.11
2022-09-28T16:58:37.433Z,22.94
2022-09-28T16:59:37.390Z,23.80
2022-09-28T17:00:37.391Z,24.69
2022-09-28T17:01:37.415Z,25.60
2022-09-28T17:02:46.653Z,26.47
2022-09-28T17:03:37.417Z,27.39
2022-09-28T17:04:37.316Z,27.96
2022-09-28T17:05:37.315Z,28.63
2022-09-28T17:06:37.301Z,29.34
2022-09-28T17:07:37.274Z,30.04
2022-09-28T17:08:37.278Z,30.95
2022-09-28T17:09:37.252Z,31.35
2022-09-28T17:10:50.182Z,32.15
2022-09-28T17:11:37.245Z,32.66
2022-09-28T17:12:37.226Z,33.28
2022-09-28T17:13:37.201Z,33.69
2022-09-28T17:14:37.214Z,34.04
2022-09-28T17:15:37.220Z,34.41
2022-09-28T17:17:03.793Z,35.05
2022-09-28T17:17:37.161Z,35.38
2022-09-28T17:18:37.152Z,35.83
2022-09-28T17:19:37.138Z,36.15
2022-09-28T17:20:37.143Z,36.65
2022-09-28T17:21:37.129Z,36.82
2022-09-28T17:22:37.096Z,37.15
2022-09-28T17:23:37.093Z,37.62
2022-09-28T17:24:37.094Z,38.24
2022-09-28T17:25:37.071Z,38.56
2022-09-28T17:26:37.066Z,38.74
2022-09-28T17:27:37.042Z,39.17
2022-09-28T17:28:37.026Z,39.36
2022-09-28T17:29:37.053Z,39.81
2022-09-28T17:30:37.077Z,40.28
2022-09-28T17:31:36.997Z,40.91
2022-09-28T17:32:36.992Z,41.56
2022-09-28T17:33:36.961Z,42.76
2022-09-28T17:34:36.964Z,42.67
2022-09-28T17:35:39.621Z,43.02
2022-09-28T17:36:36.947Z,43.11
2022-09-28T17:37:36.915Z,43.43
2022-09-28T17:38:37.667Z,43.65
2022-09-28T17:39:36.896Z,44.03
2022-09-28T17:40:36.933Z,44.31
2022-09-28T17:41:36.863Z,44.40
2022-09-28T17:42:36.846Z,44.69
2022-09-28T17:43:36.844Z,44.54
2022-09-28T17:44:36.824Z,44.98
2022-09-28T17:45:36.811Z,45.67
2022-09-28T17:46:36.895Z,46.07
2022-09-28T17:47:36.789Z,45.97
2022-09-28T17:48:36.782Z,46.17
2022-09-28T17:49:36.770Z,46.54
2022-09-28T17:50:36.755Z,46.90
2022-09-28T17:51:36.753Z,46.90
2022-09-28T17:52:36.727Z,46.54
2022-09-28T17:53:36.726Z,46.69
2022-09-28T17:54:36.700Z,46.90
2022-09-28T17:55:36.699Z,47.01
2022-09-28T17:56:36.685Z,47.14
2022-09-28T17:57:36.670Z,47.41
2022-09-28T17:58:36.657Z,47.35
2022-09-28T17:59:36.639Z,47.82
2022-09-28T18:00:36.638Z,48.46
2022-09-28T18:01:36.686Z,49.17
2022-09-28T18:02:36.682Z,49.29
2022-09-28T18:03:36.595Z,49.23
2022-09-28T18:04:51.200Z,49.62
2022-09-28T18:05:36.582Z,49.82
2022-09-28T18:06:36.576Z,49.76
2022-09-28T18:07:36.573Z,50.15
2022-09-28T18:08:36.542Z,50.49
2022-09-28T18:09:36.524Z,50.43
2022-09-28T18:10:36.515Z,50.43
2022-09-28T18:11:36.494Z,50.77
2022-09-28T18:12:36.496Z,51.36
2022-09-28T18:13:36.480Z,51.40
2022-09-28T18:14:36.466Z,51.36
2022-09-28T18:15:36.516Z,51.27
2022-09-28T18:16:36.435Z,51.36
2022-09-28T18:17:36.430Z,51.52
2022-09-28T18:18:36.414Z,51.97
2022-09-28T18:19:36.398Z,51.75
2022-09-28T18:20:36.392Z,52.01
2022-09-28T18:21:36.388Z,52.24
2022-09-28T18:22:36.381Z,52.27
2022-09-28T18:23:36.361Z,52.24
2022-09-28T18:24:36.346Z,52.30
2022-09-28T18:25:36.357Z,52.27
2022-09-28T18:26:36.330Z,52.70
2022-09-28T18:27:36.322Z,53.34
2022-09-28T18:28:36.290Z,53.79
2022-09-28T18:29:36.277Z,54.00
2022-09-28T18:30:36.272Z,54.46
2022-09-28T18:31:36.255Z,54.67
2022-09-28T18:32:36.244Z,55.00
2022-09-28T18:33:36.242Z,54.78
2022-09-28T18:34:36.246Z,55.22
2022-09-28T18:35:36.205Z,54.78
2022-09-28T18:36:36.211Z,54.67
2022-09-28T18:37:37.159Z,55.51
2022-09-28T18:38:36.201Z,55.81
2022-09-28T18:39:36.168Z,56.00
2022-09-28T18:40:36.220Z,56.08
2022-09-28T18:41:36.146Z,56.92
2022-09-28T18:42:36.131Z,56.92
2022-09-28T18:43:36.563Z,57.43
2022-09-28T18:44:36.099Z,57.51
2022-09-28T18:45:36.084Z,57.19
2022-09-28T18:46:36.269Z,57.35
2022-09-28T18:47:36.070Z,57.75
2022-09-28T18:48:36.070Z,58.40
2022-09-28T18:49:36.054Z,58.73
2022-09-28T18:50:36.034Z,60.62
2022-09-28T18:51:36.024Z,62.34
2022-09-28T18:52:36.046Z,63.24
2022-09-28T18:53:36.009Z,62.62
2022-09-28T18:54:35.992Z,63.49
2022-09-28T18:55:35.971Z,64.47
2022-09-28T18:56:35.979Z,64.52
2022-09-28T18:57:35.940Z,64.37
2022-09-28T18:58:35.950Z,63.73
2022-09-28T18:59:35.918Z,63.63
2022-09-28T19:00:35.928Z,64.22
2022-09-28T19:01:36.007Z,63.83
2022-09-28T19:02:36.012Z,64.22
2022-09-28T19:03:35.887Z,63.00
2022-09-28T19:04:35.868Z,62.62
2022-09-28T19:05:35.846Z,62.62
2022-09-28T19:06:35.836Z,63.63
2022-09-28T19:07:35.818Z,63.19
2022-09-28T19:08:35.828Z,64.02
2022-09-28T19:09:35.800Z,64.52
2022-09-28T19:10:35.802Z,64.97
2022-09-28T19:11:35.767Z,65.59
2022-09-28T19:12:35.781Z,65.85
2022-09-28T19:13:35.750Z,65.59
2022-09-28T19:14:35.752Z,65.38
2022-09-28T19:15:35.777Z,66.27
2022-09-28T19:16:35.739Z,65.38
2022-09-28T19:17:35.695Z,65.02
2022-09-28T19:18:35.689Z,65.54
2022-09-28T19:19:35.692Z,65.28
2022-09-28T19:20:35.669Z,66.48
2022-09-28T19:21:35.728Z,66.53
2022-09-28T19:22:35.661Z,66.16
2022-09-28T19:23:35.624Z,66.27
2022-09-28T19:24:35.628Z,66.96
2022-09-28T19:25:35.606Z,66.11
2022-09-28T19:26:35.591Z,66.37
2022-09-28T19:27:35.576Z,65.90
2022-09-28T19:28:35.571Z,66.22
2022-09-28T19:29:35.577Z,65.64
2022-09-28T19:30:35.588Z,64.87
2022-09-28T19:31:35.530Z,64.47
2022-09-28T19:32:35.518Z,63.83
2022-09-28T19:33:35.541Z,63.78
2022-09-28T19:34:35.519Z,64.72
2022-09-28T19:35:35.504Z,65.59
2022-09-28T19:36:35.478Z,64.97
2022-09-28T19:37:35.457Z,65.28
2022-09-28T19:38:35.466Z,65.13
2022-09-28T19:39:35.464Z,66.06
2022-09-28T19:40:35.518Z,65.54
2022-09-28T19:41:39.145Z,64.92
2022-09-28T19:42:35.424Z,65.02
2022-09-28T19:43:35.386Z,64.17
2022-09-28T19:44:35.392Z,64.82
2022-09-28T19:45:35.366Z,64.92
2022-09-28T19:46:35.414Z,64.87
2022-09-28T19:47:35.338Z,64.97
2022-09-28T19:48:35.327Z,64.67
2022-09-28T19:49:35.341Z,65.23
2022-09-28T19:50:35.306Z,65.49
2022-09-28T19:51:35.294Z,64.42
2022-09-28T19:52:35.285Z,65.28
2022-09-28T19:53:35.262Z,64.67
2022-09-28T19:54:36.691Z,65.28
2022-09-28T19:55:35.250Z,65.38
2022-09-28T19:56:35.235Z,65.23
2022-09-28T19:57:35.234Z,66.27
2022-09-28T19:58:35.231Z,65.85
2022-09-28T19:59:35.194Z,66.80
2022-09-28T20:00:35.214Z,66.22
2022-09-28T20:01:35.226Z,66.96
2022-09-28T20:02:35.262Z,66.75
2022-09-28T20:03:35.166Z,67.12
2022-09-28T20:04:35.156Z,66.96
2022-09-28T20:05:35.126Z,67.45
2022-09-28T20:06:35.104Z,67.02
2022-09-28T20:07:35.136Z,66.32
2022-09-28T20:08:35.083Z,66.75
2022-09-28T20:09:35.073Z,66.16
2022-09-28T20:10:35.097Z,66.16
2022-09-28T20:11:35.047Z,66.91
2022-09-28T20:12:35.037Z,66.37
2022-09-28T20:13:35.029Z,66.48
2022-09-28T20:14:38.231Z,67.12
2022-09-28T20:15:35.051Z,66.80
2022-09-28T20:16:34.985Z,66.48
2022-09-28T20:17:34.974Z,67.34
2022-09-28T20:18:34.963Z,67.12
2022-09-28T20:19:35.045Z,66.91
2022-09-28T20:20:34.962Z,67.07
2022-09-28T20:21:34.928Z,68.06
2022-09-28T20:22:34.930Z,67.78
2022-09-28T20:23:34.901Z,67.95
2022-09-28T20:24:34.894Z,67.02
2022-09-28T20:25:34.899Z,67.78
2022-09-28T20:26:34.925Z,68.00
2022-09-28T20:27:34.878Z,67.78
2022-09-28T20:28:34.840Z,67.95
2022-09-28T20:29:34.830Z,68.00
2022-09-28T20:30:34.819Z,68.06
2022-09-28T20:31:34.940Z,67.67
2022-09-28T20:32:34.795Z,69.54
2022-09-28T20:33:34.792Z,69.77
2022-09-28T20:34:34.776Z,69.60
2022-09-28T20:35:34.758Z,70.07
2022-09-28T20:36:34.760Z,69.95
2022-09-28T20:37:34.743Z,70.90
2022-09-28T20:38:34.722Z,70.01
2022-09-28T20:39:34.715Z,69.60
2022-09-28T20:40:34.750Z,68.56
2022-09-28T20:41:34.719Z,69.71
2022-09-28T20:42:34.680Z,69.48
2022-09-28T20:43:34.662Z,69.71
2022-09-28T20:44:34.651Z,71.03
2022-09-28T20:45:34.648Z,71.08
2022-09-28T20:46:34.796Z,71.15
2022-09-28T20:47:34.620Z,72.20
2022-09-28T20:48:34.605Z,70.96
2022-09-28T20:49:34.595Z,71.51
2022-09-28T20:50:34.577Z,70.84
2022-09-28T20:51:34.580Z,71.27
2022-09-28T20:52:34.562Z,71.15
2022-09-28T20:53:34.544Z,69.95
2022-09-28T20:54:34.536Z,70.30
2022-09-28T20:55:34.515Z,71.21
2022-09-28T20:56:34.513Z,69.83
2022-09-28T20:57:34.509Z,70.90
2022-09-28T20:58:34.493Z,70.96
2022-09-28T20:59:34.470Z,70.78
2022-09-28T21:00:34.458Z,70.78
2022-09-28T21:01:34.506Z,71.39
2022-09-28T21:02:34.506Z,70.78
2022-09-28T21:03:34.433Z,71.64
2022-09-28T21:04:34.410Z,71.39
2022-09-28T21:05:34.408Z,71.21
2022-09-28T21:06:34.387Z,71.39
2022-09-28T21:07:34.378Z,71.33
2022-09-28T21:08:34.360Z,71.82
2022-09-28T21:09:34.348Z,71.51
2022-09-28T21:10:34.345Z,70.78
2022-09-28T21:11:34.359Z,72.13
2022-09-28T21:12:34.325Z,72.01
2022-09-28T21:13:34.296Z,72.13
2022-09-28T21:14:34.302Z,72.26
2022-09-28T21:15:34.398Z,71.70
2022-09-28T21:16:34.263Z,71.64
2022-09-28T21:17:34.266Z,71.82
2022-09-28T21:18:34.258Z,71.70
2022-09-28T21:19:34.228Z,71.82
2022-09-28T21:20:34.217Z,71.21
2022-09-28T21:21:34.242Z,70.42
2022-09-28T21:22:34.191Z,71.51
2022-09-28T21:23:34.181Z,71.27
2022-09-28T21:24:34.171Z,71.39
2022-09-28T21:25:34.166Z,71.33
2022-09-28T21:26:34.136Z,72.39
2022-09-28T21:27:34.169Z,71.76
2022-09-28T21:28:34.121Z,71.76
2022-09-28T21:29:34.111Z,72.01
2022-09-28T21:30:34.091Z,71.95
2022-09-28T21:31:34.125Z,71.89
2022-09-28T21:32:34.081Z,71.76
2022-09-28T21:33:34.058Z,72.32
2022-09-28T21:34:34.044Z,72.51
2022-09-28T21:35:34.038Z,72.51
2022-09-28T21:36:34.019Z,72.07
2022-09-28T21:37:34.039Z,71.64
2022-09-28T21:38:34.003Z,72.70
2022-09-28T21:39:33.987Z,72.51
2022-09-28T21:40:34.044Z,72.57
2022-09-28T21:41:33.957Z,73.08
2022-09-28T21:42:33.963Z,72.13
2022-09-28T21:43:33.940Z,72.20
2022-09-28T21:44:33.925Z,72.32
2022-09-28T21:45:33.912Z,72.83
2022-09-28T21:46:34.018Z,72.77
2022-09-28T21:47:33.885Z,72.51
2022-09-28T21:48:33.881Z,71.64
2022-09-28T21:49:33.863Z,71.95
2022-09-28T21:50:33.854Z,71.64
2022-09-28T21:51:33.841Z,71.95
2022-09-28T21:52:33.855Z,71.95
2022-09-28T21:53:33.826Z,71.82
2022-09-28T21:54:33.807Z,72.57
2022-09-28T21:55:33.825Z,73.02
2022-09-28T21:56:33.795Z,72.01
2022-09-28T21:57:33.764Z,72.64
2022-09-28T21:58:33.758Z,73.08
2022-09-28T21:59:33.754Z,72.32
2022-09-28T22:00:33.736Z,72.57
2022-09-28T22:01:33.771Z,72.26
2022-09-28T22:02:33.762Z,72.07
2022-09-28T22:03:33.712Z,73.08
2022-09-28T22:04:33.679Z,72.45
2022-09-28T22:05:33.681Z,73.08
2022-09-28T22:06:33.655Z,72.32
2022-09-28T22:07:33.655Z,73.60
2022-09-28T22:08:33.641Z,72.89
2022-09-28T22:09:33.637Z,73.28
2022-09-28T22:10:33.606Z,73.34
2022-09-28T22:11:33.602Z,73.21
2022-09-28T22:12:33.583Z,73.60
2022-09-28T22:13:33.582Z,73.41
2022-09-28T22:14:33.585Z,72.89
2022-09-28T22:15:33.617Z,73.02
2022-09-28T22:16:33.533Z,74.06
2022-09-28T22:17:33.535Z,74.13
2022-09-28T22:18:33.518Z,74.59
2022-09-28T22:19:33.507Z,74.26
2022-09-28T22:20:33.483Z,73.73
2022-09-28T22:21:33.484Z,74.59
2022-09-28T22:22:33.461Z,74.33
2022-09-28T22:23:33.489Z,74.73
2022-09-28T22:24:33.442Z,74.46
2022-09-28T22:25:33.429Z,73.34
2022-09-28T22:26:33.434Z,73.47
2022-09-28T22:27:33.411Z,73.67
2022-09-28T22:28:33.399Z,74.59
2022-09-28T22:29:33.385Z,74.33
2022-09-28T22:30:33.388Z,74.13
2022-09-28T22:31:33.452Z,74.86
2022-09-28T22:32:33.356Z,74.59
2022-09-28T22:33:33.360Z,74.73
2022-09-28T22:34:33.341Z,73.93
2022-09-28T22:35:33.313Z,73.80
2022-09-28T22:36:33.300Z,73.47
2022-09-28T22:37:33.280Z,73.73
2022-09-28T22:38:33.269Z,73.73
2022-09-28T22:39:37.470Z,73.86
2022-09-28T22:40:33.329Z,74.06
2022-09-28T22:41:33.234Z,74.86
2022-09-28T22:42:39.741Z,74.79
2022-09-28T22:43:33.214Z,74.73
2022-09-28T22:44:33.209Z,74.39
2022-09-28T22:45:33.212Z,74.26
2022-09-28T22:46:33.219Z,74.66
2022-09-28T22:47:33.166Z,74.59
2022-09-28T22:48:33.152Z,75.20
2022-09-28T22:49:33.155Z,74.73
2022-09-28T22:50:33.132Z,74.26
2022-09-28T22:51:33.117Z,73.47
2022-09-28T22:52:33.108Z,72.83
2022-09-28T22:53:33.085Z,72.32
2022-09-28T22:54:33.077Z,73.28
2022-09-28T22:55:33.059Z,73.28
2022-09-28T22:56:33.073Z,73.41
2022-09-28T22:57:33.039Z,73.41
2022-09-28T22:58:33.024Z,72.70
2022-09-28T22:59:33.017Z,72.13
2022-09-28T23:00:32.994Z,72.64
2022-09-28T23:01:33.036Z,72.45
2022-09-28T23:02:33.088Z,72.64
2022-09-28T23:03:32.964Z,72.51
2022-09-28T23:04:32.967Z,72.39
2022-09-28T23:05:32.947Z,72.45
2022-09-28T23:06:32.923Z,71.64
2022-09-28T23:07:32.917Z,71.82
2022-09-28T23:08:32.928Z,71.70
2022-09-28T23:09:32.897Z,72.57
2022-09-28T23:10:32.879Z,72.20
2022-09-28T23:11:32.911Z,72.13
2022-09-28T23:12:32.871Z,72.83
2022-09-28T23:13:32.847Z,72.32
2022-09-28T23:14:32.844Z,72.64
2022-09-28T23:15:32.814Z,72.13
2022-09-28T23:16:32.845Z,72.45
2022-09-28T23:17:32.807Z,72.77
2022-09-28T23:18:32.778Z,72.39
2022-09-28T23:19:32.778Z,72.45
2022-09-28T23:20:32.772Z,72.26
2022-09-28T23:21:32.748Z,72.51
2022-09-28T23:22:32.743Z,72.45
2022-09-28T23:23:32.730Z,72.70
2022-09-28T23:24:32.718Z,73.15
2022-09-28T23:25:32.716Z,73.34
2022-09-28T23:26:32.705Z,72.89
2022-09-28T23:27:32.699Z,73.28
2022-09-28T23:28:32.670Z,72.64
2022-09-28T23:29:32.646Z,73.34
2022-09-28T23:30:32.627Z,73.47
2022-09-28T23:31:32.698Z,73.47
2022-09-28T23:32:32.613Z,73.67
2022-09-28T23:33:32.611Z,73.60
2022-09-28T23:34:32.593Z,73.54
2022-09-28T23:35:32.576Z,73.41
2022-09-28T23:36:32.573Z,74.19
2022-09-28T23:37:32.564Z,73.34
2022-09-28T23:38:32.538Z,74.46
2022-09-28T23:39:32.538Z,74.46
2022-09-28T23:40:32.590Z,74.59
2022-09-28T23:41:32.516Z,74.33
2022-09-28T23:42:32.485Z,73.93
2022-09-28T23:43:32.493Z,74.00
2022-09-28T23:44:32.461Z,74.33
2022-09-28T23:45:32.449Z,73.73
2022-09-28T23:46:32.500Z,73.73
2022-09-28T23:47:32.439Z,73.73
2022-09-28T23:48:32.414Z,73.86
2022-09-28T23:49:32.404Z,73.86
2022-09-28T23:50:32.390Z,72.64
2022-09-28T23:51:32.391Z,73.28
2022-09-28T23:52:32.370Z,73.15
2022-09-28T23:53:32.363Z,72.89
2022-09-28T23:54:32.366Z,72.64
2022-09-28T23:55:32.348Z,73.15
2022-09-28T23:56:32.336Z,73.21
2022-09-28T23:57:32.305Z,73.47
2022-09-28T23:58:32.301Z,73.67
2022-09-28T23:59:32.285Z,73.80
